sensor_id;sensor_type;location;lat;lon;timestamp;P1;durP1;ratioP1;P2;durP2;ratioP2
43146;SDS011;28752;48.266;7.402;2022-07-23T00:00:01;5.95;;;3.00;;
43146;SDS011;28752;48.266;7.402;2022-07-23T00:02:28;4.72;;;2.80;;
43146;SDS011;28752;48.266;7.402;2022-07-23T00:04:54;5.45;;;2.78;;
43146;SDS011;28752;48.266;7.402;2022-07-23T00:07:19;5.45;;;3.25;;
43146;SDS011;28752;48.266;7.402;2022-07-23T00:09:44;6.30;;;3.00;;
43146;SDS011;28752;48.266;7.402;2022-07-23T00:12:10;5.55;;;2.95;;
43146;SDS011;28752;48.266;7.402;2022-07-23T00:14:35;5.32;;;3.28;;
43146;SDS011;28752;48.266;7.402;2022-07-23T00:17:00;5.88;;;2.92;;
43146;SDS011;28752;48.266;7.402;2022-07-23T00:19:26;5.82;;;3.00;;
43146;SDS011;28752;48.266;7.402;2022-07-23T00:21:51;5.03;;;3.03;;
43146;SDS011;28752;48.266;7.402;2022-07-23T00:24:17;6.37;;;3.17;;
43146;SDS011;28752;48.266;7.402;2022-07-23T00:26:42;6.32;;;3.08;;
43146;SDS011;28752;48.266;7.402;2022-07-23T00:29:07;6.30;;;3.15;;
43146;SDS011;28752;48.266;7.402;2022-07-23T00:31:33;4.88;;;2.63;;
43146;SDS011;28752;48.266;7.402;2022-07-23T00:33:58;6.20;;;3.28;;
43146;SDS011;28752;48.266;7.402;2022-07-23T00:36:26;5.93;;;2.97;;
43146;SDS011;28752;48.266;7.402;2022-07-23T00:41:17;5.60;;;3.03;;
43146;SDS011;28752;48.266;7.402;2022-07-23T00:43:43;5.68;;;3.33;;
43146;SDS011;28752;48.266;7.402;2022-07-23T00:46:08;6.38;;;3.60;;
43146;SDS011;28752;48.266;7.402;2022-07-23T00:48:33;5.63;;;2.83;;
43146;SDS011;28752;48.266;7.402;2022-07-23T00:50:59;5.63;;;3.20;;
43146;SDS011;28752;48.266;7.402;2022-07-23T00:53:24;5.63;;;3.08;;
43146;SDS011;28752;48.266;7.402;2022-07-23T00:55:50;5.45;;;3.00;;
43146;SDS011;28752;48.266;7.402;2022-07-23T00:58:16;5.15;;;2.97;;
43146;SDS011;28752;48.266;7.402;2022-07-23T01:03:07;7.05;;;3.13;;
43146;SDS011;28752;48.266;7.402;2022-07-23T01:05:33;5.40;;;3.22;;
43146;SDS011;28752;48.266;7.402;2022-07-23T01:07:58;6.10;;;3.13;;
43146;SDS011;28752;48.266;7.402;2022-07-23T01:10:24;6.05;;;3.08;;
43146;SDS011;28752;48.266;7.402;2022-07-23T01:12:57;5.72;;;2.80;;
43146;SDS011;28752;48.266;7.402;2022-07-23T01:15:23;5.90;;;3.55;;
43146;SDS011;28752;48.266;7.402;2022-07-23T01:17:49;6.20;;;2.85;;
43146;SDS011;28752;48.266;7.402;2022-07-23T01:20:14;4.97;;;2.95;;
43146;SDS011;28752;48.266;7.402;2022-07-23T01:22:40;4.88;;;3.20;;
43146;SDS011;28752;48.266;7.402;2022-07-23T01:25:06;6.28;;;3.58;;
43146;SDS011;28752;48.266;7.402;2022-07-23T01:27:31;5.93;;;3.22;;
43146;SDS011;28752;48.266;7.402;2022-07-23T01:29:57;6.43;;;3.25;;
43146;SDS011;28752;48.266;7.402;2022-07-23T01:32:25;6.18;;;3.33;;
43146;SDS011;28752;48.266;7.402;2022-07-23T01:34:50;6.35;;;3.78;;
43146;SDS011;28752;48.266;7.402;2022-07-23T01:37:16;6.80;;;3.78;;
43146;SDS011;28752;48.266;7.402;2022-07-23T01:39:41;5.80;;;3.35;;
43146;SDS011;28752;48.266;7.402;2022-07-23T01:42:06;6.15;;;3.45;;
43146;SDS011;28752;48.266;7.402;2022-07-23T01:44:32;6.25;;;3.65;;
43146;SDS011;28752;48.266;7.402;2022-07-23T01:46:57;7.30;;;3.60;;
43146;SDS011;28752;48.266;7.402;2022-07-23T01:49:23;5.38;;;3.05;;
43146;SDS011;28752;48.266;7.402;2022-07-23T01:51:48;6.87;;;3.43;;
43146;SDS011;28752;48.266;7.402;2022-07-23T01:54:26;7.85;;;4.18;;
43146;SDS011;28752;48.266;7.402;2022-07-23T01:56:52;8.15;;;4.53;;
43146;SDS011;28752;48.266;7.402;2022-07-23T01:59:18;6.85;;;4.03;;
43146;SDS011;28752;48.266;7.402;2022-07-23T02:01:43;8.80;;;4.30;;
43146;SDS011;28752;48.266;7.402;2022-07-23T02:04:08;6.85;;;3.75;;
43146;SDS011;28752;48.266;7.402;2022-07-23T02:06:34;6.55;;;3.90;;
43146;SDS011;28752;48.266;7.402;2022-07-23T02:08:59;7.47;;;3.90;;
43146;SDS011;28752;48.266;7.402;2022-07-23T02:11:25;6.30;;;3.53;;
43146;SDS011;28752;48.266;7.402;2022-07-23T02:13:50;6.37;;;3.90;;
43146;SDS011;28752;48.266;7.402;2022-07-23T02:16:15;6.40;;;3.43;;
43146;SDS011;28752;48.266;7.402;2022-07-23T02:18:41;7.07;;;3.85;;
43146;SDS011;28752;48.266;7.402;2022-07-23T02:21:06;6.90;;;4.20;;
43146;SDS011;28752;48.266;7.402;2022-07-23T02:23:31;7.73;;;3.93;;
43146;SDS011;28752;48.266;7.402;2022-07-23T02:25:57;6.68;;;4.05;;
43146;SDS011;28752;48.266;7.402;2022-07-23T02:28:22;6.60;;;4.13;;
43146;SDS011;28752;48.266;7.402;2022-07-23T02:30:48;5.60;;;3.50;;
43146;SDS011;28752;48.266;7.402;2022-07-23T02:33:13;6.70;;;3.70;;
43146;SDS011;28752;48.266;7.402;2022-07-23T02:35:38;7.13;;;3.57;;
43146;SDS011;28752;48.266;7.402;2022-07-23T02:38:04;7.55;;;3.80;;
43146;SDS011;28752;48.266;7.402;2022-07-23T02:40:29;7.10;;;3.27;;
43146;SDS011;28752;48.266;7.402;2022-07-23T02:42:55;5.77;;;3.40;;
43146;SDS011;28752;48.266;7.402;2022-07-23T02:45:20;6.43;;;3.67;;
43146;SDS011;28752;48.266;7.402;2022-07-23T02:47:46;7.97;;;3.63;;
43146;SDS011;28752;48.266;7.402;2022-07-23T02:50:11;7.93;;;4.40;;
43146;SDS011;28752;48.266;7.402;2022-07-23T02:52:37;6.72;;;4.00;;
43146;SDS011;28752;48.266;7.402;2022-07-23T02:55:02;6.72;;;3.35;;
43146;SDS011;28752;48.266;7.402;2022-07-23T02:57:28;6.13;;;3.47;;
43146;SDS011;28752;48.266;7.402;2022-07-23T02:59:54;5.85;;;3.78;;
43146;SDS011;28752;48.266;7.402;2022-07-23T03:02:19;7.45;;;3.70;;
43146;SDS011;28752;48.266;7.402;2022-07-23T03:04:45;6.45;;;3.55;;
43146;SDS011;28752;48.266;7.402;2022-07-23T03:07:10;7.03;;;3.92;;
43146;SDS011;28752;48.266;7.402;2022-07-23T03:09:35;6.55;;;3.38;;
43146;SDS011;28752;48.266;7.402;2022-07-23T03:12:01;6.30;;;3.67;;
43146;SDS011;28752;48.266;7.402;2022-07-23T03:14:26;6.07;;;3.63;;
43146;SDS011;28752;48.266;7.402;2022-07-23T03:16:52;7.05;;;3.72;;
43146;SDS011;28752;48.266;7.402;2022-07-23T03:19:19;6.35;;;3.20;;
43146;SDS011;28752;48.266;7.402;2022-07-23T03:21:44;6.68;;;3.72;;
43146;SDS011;28752;48.266;7.402;2022-07-23T03:24:10;6.67;;;3.60;;
43146;SDS011;28752;48.266;7.402;2022-07-23T03:26:35;6.65;;;3.25;;
43146;SDS011;28752;48.266;7.402;2022-07-23T03:29:01;6.68;;;3.40;;
43146;SDS011;28752;48.266;7.402;2022-07-23T03:31:28;7.88;;;4.13;;
43146;SDS011;28752;48.266;7.402;2022-07-23T03:33:55;6.45;;;3.97;;
43146;SDS011;28752;48.266;7.402;2022-07-23T03:36:20;5.97;;;3.67;;
43146;SDS011;28752;48.266;7.402;2022-07-23T03:38:46;7.27;;;4.00;;
43146;SDS011;28752;48.266;7.402;2022-07-23T03:41:11;6.23;;;3.50;;
43146;SDS011;28752;48.266;7.402;2022-07-23T03:43:37;7.20;;;3.53;;
43146;SDS011;28752;48.266;7.402;2022-07-23T03:46:02;6.53;;;3.65;;
43146;SDS011;28752;48.266;7.402;2022-07-23T03:48:27;6.53;;;3.72;;
43146;SDS011;28752;48.266;7.402;2022-07-23T03:50:53;8.30;;;3.90;;
43146;SDS011;28752;48.266;7.402;2022-07-23T03:53:18;5.40;;;2.95;;
43146;SDS011;28752;48.266;7.402;2022-07-23T03:55:44;5.40;;;3.00;;
43146;SDS011;28752;48.266;7.402;2022-07-23T03:58:09;6.63;;;3.35;;
43146;SDS011;28752;48.266;7.402;2022-07-23T04:00:34;7.10;;;3.63;;
43146;SDS011;28752;48.266;7.402;2022-07-23T04:03:00;7.75;;;3.47;;
43146;SDS011;28752;48.266;7.402;2022-07-23T04:05:25;7.17;;;3.57;;
43146;SDS011;28752;48.266;7.402;2022-07-23T04:07:51;7.15;;;3.78;;
43146;SDS011;28752;48.266;7.402;2022-07-23T04:10:16;6.20;;;3.80;;
43146;SDS011;28752;48.266;7.402;2022-07-23T04:12:42;6.63;;;3.78;;
43146;SDS011;28752;48.266;7.402;2022-07-23T04:15:07;6.97;;;3.60;;
43146;SDS011;28752;48.266;7.402;2022-07-23T04:17:33;6.60;;;3.65;;
43146;SDS011;28752;48.266;7.402;2022-07-23T04:19:59;8.13;;;3.90;;
43146;SDS011;28752;48.266;7.402;2022-07-23T04:22:24;7.68;;;4.00;;
43146;SDS011;28752;48.266;7.402;2022-07-23T04:24:50;5.53;;;3.33;;
43146;SDS011;28752;48.266;7.402;2022-07-23T04:27:15;5.57;;;3.25;;
43146;SDS011;28752;48.266;7.402;2022-07-23T04:29:41;6.00;;;3.70;;
43146;SDS011;28752;48.266;7.402;2022-07-23T04:32:06;7.93;;;4.28;;
43146;SDS011;28752;48.266;7.402;2022-07-23T04:34:32;8.57;;;3.78;;
43146;SDS011;28752;48.266;7.402;2022-07-23T04:36:57;8.23;;;4.15;;
43146;SDS011;28752;48.266;7.402;2022-07-23T04:39:23;6.37;;;3.43;;
43146;SDS011;28752;48.266;7.402;2022-07-23T04:41:48;7.03;;;3.40;;
43146;SDS011;28752;48.266;7.402;2022-07-23T04:44:14;6.28;;;3.50;;
43146;SDS011;28752;48.266;7.402;2022-07-23T04:46:39;6.73;;;3.67;;
43146;SDS011;28752;48.266;7.402;2022-07-23T04:49:05;7.20;;;3.80;;
43146;SDS011;28752;48.266;7.402;2022-07-23T04:51:30;6.53;;;3.85;;
43146;SDS011;28752;48.266;7.402;2022-07-23T04:53:56;6.93;;;3.67;;
43146;SDS011;28752;48.266;7.402;2022-07-23T04:56:21;5.88;;;3.53;;
43146;SDS011;28752;48.266;7.402;2022-07-23T04:58:47;6.70;;;3.72;;
43146;SDS011;28752;48.266;7.402;2022-07-23T05:01:12;7.80;;;4.40;;
43146;SDS011;28752;48.266;7.402;2022-07-23T05:03:37;8.32;;;3.65;;
43146;SDS011;28752;48.266;7.402;2022-07-23T05:06:03;7.50;;;3.88;;
43146;SDS011;28752;48.266;7.402;2022-07-23T05:08:29;7.90;;;3.75;;
43146;SDS011;28752;48.266;7.402;2022-07-23T05:10:54;8.02;;;4.53;;
43146;SDS011;28752;48.266;7.402;2022-07-23T05:13:20;9.70;;;4.03;;
43146;SDS011;28752;48.266;7.402;2022-07-23T05:15:45;8.90;;;4.28;;
43146;SDS011;28752;48.266;7.402;2022-07-23T05:18:11;9.23;;;4.37;;
43146;SDS011;28752;48.266;7.402;2022-07-23T05:20:36;6.75;;;3.95;;
43146;SDS011;28752;48.266;7.402;2022-07-23T05:23:02;6.30;;;3.63;;
43146;SDS011;28752;48.266;7.402;2022-07-23T05:25:27;7.28;;;3.90;;
43146;SDS011;28752;48.266;7.402;2022-07-23T05:27:53;7.82;;;4.03;;
43146;SDS011;28752;48.266;7.402;2022-07-23T05:30:18;7.50;;;3.95;;
43146;SDS011;28752;48.266;7.402;2022-07-23T05:32:44;7.30;;;4.50;;
43146;SDS011;28752;48.266;7.402;2022-07-23T05:35:10;6.78;;;3.67;;
43146;SDS011;28752;48.266;7.402;2022-07-23T05:37:35;8.07;;;4.85;;
43146;SDS011;28752;48.266;7.402;2022-07-23T05:40:02;7.70;;;4.20;;
43146;SDS011;28752;48.266;7.402;2022-07-23T05:42:35;7.05;;;4.35;;
43146;SDS011;28752;48.266;7.402;2022-07-23T05:45:02;6.93;;;4.60;;
43146;SDS011;28752;48.266;7.402;2022-07-23T05:49:53;7.72;;;4.50;;
43146;SDS011;28752;48.266;7.402;2022-07-23T05:52:19;8.45;;;4.47;;
43146;SDS011;28752;48.266;7.402;2022-07-23T05:54:44;7.22;;;3.90;;
43146;SDS011;28752;48.266;7.402;2022-07-23T05:57:09;6.72;;;4.13;;
43146;SDS011;28752;48.266;7.402;2022-07-23T05:59:35;6.20;;;3.72;;
43146;SDS011;28752;48.266;7.402;2022-07-23T06:02:00;7.80;;;4.00;;
43146;SDS011;28752;48.266;7.402;2022-07-23T06:04:26;7.72;;;4.00;;
43146;SDS011;28752;48.266;7.402;2022-07-23T06:06:51;7.18;;;3.90;;
43146;SDS011;28752;48.266;7.402;2022-07-23T06:09:17;6.72;;;3.78;;
43146;SDS011;28752;48.266;7.402;2022-07-23T06:11:43;6.47;;;3.40;;
43146;SDS011;28752;48.266;7.402;2022-07-23T06:14:08;6.80;;;4.10;;
43146;SDS011;28752;48.266;7.402;2022-07-23T06:16:34;6.38;;;3.90;;
43146;SDS011;28752;48.266;7.402;2022-07-23T06:21:24;8.23;;;3.30;;
43146;SDS011;28752;48.266;7.402;2022-07-23T06:26:15;7.23;;;3.87;;
43146;SDS011;28752;48.266;7.402;2022-07-23T06:31:06;6.30;;;3.80;;
43146;SDS011;28752;48.266;7.402;2022-07-23T06:35:56;6.57;;;2.97;;
43146;SDS011;28752;48.266;7.402;2022-07-23T06:38:22;6.53;;;3.85;;
43146;SDS011;28752;48.266;7.402;2022-07-23T06:40:47;6.55;;;3.80;;
43146;SDS011;28752;48.266;7.402;2022-07-23T06:43:13;6.95;;;3.55;;
43146;SDS011;28752;48.266;7.402;2022-07-23T06:45:38;6.05;;;3.22;;
43146;SDS011;28752;48.266;7.402;2022-07-23T06:48:03;6.05;;;3.65;;
43146;SDS011;28752;48.266;7.402;2022-07-23T06:50:29;7.45;;;3.50;;
43146;SDS011;28752;48.266;7.402;2022-07-23T06:52:54;5.20;;;3.33;;
43146;SDS011;28752;48.266;7.402;2022-07-23T06:55:20;5.60;;;3.25;;
43146;SDS011;28752;48.266;7.402;2022-07-23T06:57:45;7.03;;;3.75;;
43146;SDS011;28752;48.266;7.402;2022-07-23T07:00:11;5.93;;;3.53;;
43146;SDS011;28752;48.266;7.402;2022-07-23T07:02:36;6.10;;;3.58;;
43146;SDS011;28752;48.266;7.402;2022-07-23T07:05:02;9.05;;;3.95;;
43146;SDS011;28752;48.266;7.402;2022-07-23T07:07:28;6.45;;;3.40;;
43146;SDS011;28752;48.266;7.402;2022-07-23T07:09:53;5.82;;;3.20;;
43146;SDS011;28752;48.266;7.402;2022-07-23T07:12:19;6.20;;;3.58;;
43146;SDS011;28752;48.266;7.402;2022-07-23T07:14:44;5.28;;;3.28;;
43146;SDS011;28752;48.266;7.402;2022-07-23T07:17:09;6.07;;;3.45;;
43146;SDS011;28752;48.266;7.402;2022-07-23T07:19:36;5.65;;;3.25;;
43146;SDS011;28752;48.266;7.402;2022-07-23T07:22:01;5.90;;;3.58;;
43146;SDS011;28752;48.266;7.402;2022-07-23T07:24:27;6.80;;;3.30;;
43146;SDS011;28752;48.266;7.402;2022-07-23T07:26:52;5.20;;;3.13;;
43146;SDS011;28752;48.266;7.402;2022-07-23T07:29:18;4.72;;;3.10;;
43146;SDS011;28752;48.266;7.402;2022-07-23T07:31:43;5.38;;;3.20;;
43146;SDS011;28752;48.266;7.402;2022-07-23T07:34:09;5.53;;;2.88;;
43146;SDS011;28752;48.266;7.402;2022-07-23T07:36:34;4.82;;;2.50;;
43146;SDS011;28752;48.266;7.402;2022-07-23T07:39:02;5.00;;;3.05;;
43146;SDS011;28752;48.266;7.402;2022-07-23T07:41:29;6.57;;;3.35;;
43146;SDS011;28752;48.266;7.402;2022-07-23T07:43:55;6.55;;;3.45;;
43146;SDS011;28752;48.266;7.402;2022-07-23T07:46:20;5.40;;;3.13;;
43146;SDS011;28752;48.266;7.402;2022-07-23T07:48:45;5.30;;;3.15;;
43146;SDS011;28752;48.266;7.402;2022-07-23T07:51:11;4.82;;;3.10;;
43146;SDS011;28752;48.266;7.402;2022-07-23T07:53:36;5.03;;;2.92;;
43146;SDS011;28752;48.266;7.402;2022-07-23T07:56:01;5.60;;;3.50;;
43146;SDS011;28752;48.266;7.402;2022-07-23T07:58:27;5.82;;;3.38;;
43146;SDS011;28752;48.266;7.402;2022-07-23T08:00:52;4.70;;;2.58;;
43146;SDS011;28752;48.266;7.402;2022-07-23T08:03:18;5.22;;;3.00;;
43146;SDS011;28752;48.266;7.402;2022-07-23T08:05:43;5.00;;;3.22;;
43146;SDS011;28752;48.266;7.402;2022-07-23T08:08:09;4.90;;;2.75;;
43146;SDS011;28752;48.266;7.402;2022-07-23T08:10:39;5.20;;;3.10;;
43146;SDS011;28752;48.266;7.402;2022-07-23T08:13:05;4.57;;;2.80;;
43146;SDS011;28752;48.266;7.402;2022-07-23T08:15:30;5.10;;;3.10;;
43146;SDS011;28752;48.266;7.402;2022-07-23T08:17:56;4.57;;;2.88;;
43146;SDS011;28752;48.266;7.402;2022-07-23T08:20:23;5.80;;;2.97;;
43146;SDS011;28752;48.266;7.402;2022-07-23T08:22:50;7.90;;;2.97;;
43146;SDS011;28752;48.266;7.402;2022-07-23T08:25:16;5.07;;;2.97;;
43146;SDS011;28752;48.266;7.402;2022-07-23T08:27:46;4.80;;;2.65;;
43146;SDS011;28752;48.266;7.402;2022-07-23T08:30:12;5.15;;;3.00;;
43146;SDS011;28752;48.266;7.402;2022-07-23T08:32:51;4.88;;;3.03;;
43146;SDS011;28752;48.266;7.402;2022-07-23T08:35:21;6.15;;;3.60;;
43146;SDS011;28752;48.266;7.402;2022-07-23T08:37:48;7.57;;;3.50;;
43146;SDS011;28752;48.266;7.402;2022-07-23T08:40:13;4.97;;;3.38;;
43146;SDS011;28752;48.266;7.402;2022-07-23T08:42:39;7.05;;;3.50;;
43146;SDS011;28752;48.266;7.402;2022-07-23T08:45:04;6.32;;;3.63;;
43146;SDS011;28752;48.266;7.402;2022-07-23T08:47:32;5.78;;;3.25;;
43146;SDS011;28752;48.266;7.402;2022-07-23T08:49:59;4.60;;;2.97;;
43146;SDS011;28752;48.266;7.402;2022-07-23T08:52:25;5.82;;;3.20;;
43146;SDS011;28752;48.266;7.402;2022-07-23T08:54:51;5.90;;;3.30;;
43146;SDS011;28752;48.266;7.402;2022-07-23T08:57:18;5.07;;;3.05;;
43146;SDS011;28752;48.266;7.402;2022-07-23T08:59:43;5.57;;;3.35;;
43146;SDS011;28752;48.266;7.402;2022-07-23T09:02:08;4.90;;;2.83;;
43146;SDS011;28752;48.266;7.402;2022-07-23T09:04:34;5.60;;;3.33;;
43146;SDS011;28752;48.266;7.402;2022-07-23T09:06:59;5.55;;;3.25;;
43146;SDS011;28752;48.266;7.402;2022-07-23T09:09:27;7.57;;;3.75;;
43146;SDS011;28752;48.266;7.402;2022-07-23T09:12:06;5.63;;;3.50;;
43146;SDS011;28752;48.266;7.402;2022-07-23T09:14:39;5.75;;;3.20;;
43146;SDS011;28752;48.266;7.402;2022-07-23T09:17:12;6.07;;;3.60;;
43146;SDS011;28752;48.266;7.402;2022-07-23T09:19:42;6.88;;;3.50;;
43146;SDS011;28752;48.266;7.402;2022-07-23T09:22:19;5.80;;;3.58;;
43146;SDS011;28752;48.266;7.402;2022-07-23T09:30:30;6.55;;;3.10;;
43146;SDS011;28752;48.266;7.402;2022-07-23T09:33:13;6.05;;;3.60;;
43146;SDS011;28752;48.266;7.402;2022-07-23T09:35:55;5.78;;;3.55;;
43146;SDS011;28752;48.266;7.402;2022-07-23T09:41:10;6.68;;;3.35;;
43146;SDS011;28752;48.266;7.402;2022-07-23T09:43:38;5.90;;;3.33;;
43146;SDS011;28752;48.266;7.402;2022-07-23T09:46:25;6.95;;;3.25;;
43146;SDS011;28752;48.266;7.402;2022-07-23T09:48:52;7.07;;;3.00;;
43146;SDS011;28752;48.266;7.402;2022-07-23T09:51:19;5.88;;;3.58;;
43146;SDS011;28752;48.266;7.402;2022-07-23T09:53:50;7.20;;;3.65;;
43146;SDS011;28752;48.266;7.402;2022-07-23T09:56:16;5.68;;;3.40;;
43146;SDS011;28752;48.266;7.402;2022-07-23T09:58:43;5.28;;;3.05;;
43146;SDS011;28752;48.266;7.402;2022-07-23T10:01:14;5.15;;;2.92;;
43146;SDS011;28752;48.266;7.402;2022-07-23T10:03:40;6.70;;;3.58;;
43146;SDS011;28752;48.266;7.402;2022-07-23T10:06:08;5.72;;;3.67;;
43146;SDS011;28752;48.266;7.402;2022-07-23T10:08:35;6.35;;;3.97;;
43146;SDS011;28752;48.266;7.402;2022-07-23T10:11:02;6.72;;;3.53;;
43146;SDS011;28752;48.266;7.402;2022-07-23T10:13:29;5.07;;;3.05;;
43146;SDS011;28752;48.266;7.402;2022-07-23T10:16:13;6.28;;;3.50;;
43146;SDS011;28752;48.266;7.402;2022-07-23T10:18:39;5.25;;;3.25;;
43146;SDS011;28752;48.266;7.402;2022-07-23T10:21:05;6.85;;;3.85;;
43146;SDS011;28752;48.266;7.402;2022-07-23T10:23:45;4.68;;;3.00;;
43146;SDS011;28752;48.266;7.402;2022-07-23T10:26:22;7.78;;;3.08;;
43146;SDS011;28752;48.266;7.402;2022-07-23T10:31:41;7.80;;;3.80;;
43146;SDS011;28752;48.266;7.402;2022-07-23T10:37:01;5.78;;;3.15;;
43146;SDS011;28752;48.266;7.402;2022-07-23T10:40:34;5.55;;;3.53;;
43146;SDS011;28752;48.266;7.402;2022-07-23T10:42:47;6.78;;;3.40;;
43146;SDS011;28752;48.266;7.402;2022-07-23T10:45:22;7.28;;;3.55;;
43146;SDS011;28752;48.266;7.402;2022-07-23T10:47:53;5.60;;;3.33;;
43146;SDS011;28752;48.266;7.402;2022-07-23T10:50:21;5.07;;;3.03;;
43146;SDS011;28752;48.266;7.402;2022-07-23T10:58:00;6.05;;;3.55;;
43146;SDS011;28752;48.266;7.402;2022-07-23T11:00:29;6.18;;;3.78;;
43146;SDS011;28752;48.266;7.402;2022-07-23T11:02:56;5.63;;;3.45;;
43146;SDS011;28752;48.266;7.402;2022-07-23T11:05:51;5.30;;;3.60;;
43146;SDS011;28752;48.266;7.402;2022-07-23T11:08:19;5.63;;;3.13;;
43146;SDS011;28752;48.266;7.402;2022-07-23T11:32:02;5.57;;;3.47;;
43146;SDS011;28752;48.266;7.402;2022-07-23T11:37:04;5.70;;;3.37;;
43146;SDS011;28752;48.266;7.402;2022-07-23T11:39:32;5.75;;;3.63;;
43146;SDS011;28752;48.266;7.402;2022-07-23T11:41:58;6.18;;;3.88;;
43146;SDS011;28752;48.266;7.402;2022-07-23T11:46:56;6.13;;;3.60;;
43146;SDS011;28752;48.266;7.402;2022-07-23T11:49:23;5.75;;;3.15;;
43146;SDS011;28752;48.266;7.402;2022-07-23T11:54:35;5.82;;;3.60;;
43146;SDS011;28752;48.266;7.402;2022-07-23T11:57:11;7.57;;;4.18;;
43146;SDS011;28752;48.266;7.402;2022-07-23T11:59:36;6.20;;;3.28;;
43146;SDS011;28752;48.266;7.402;2022-07-23T12:02:04;5.57;;;3.33;;
43146;SDS011;28752;48.266;7.402;2022-07-23T12:04:39;6.15;;;3.78;;
43146;SDS011;28752;48.266;7.402;2022-07-23T12:08:13;5.72;;;3.47;;
43146;SDS011;28752;48.266;7.402;2022-07-23T12:10:17;6.78;;;3.95;;
43146;SDS011;28752;48.266;7.402;2022-07-23T12:12:49;7.90;;;3.80;;
43146;SDS011;28752;48.266;7.402;2022-07-23T12:17:49;6.00;;;3.22;;
43146;SDS011;28752;48.266;7.402;2022-07-23T12:20:17;5.93;;;3.63;;
43146;SDS011;28752;48.266;7.402;2022-07-23T12:22:46;5.35;;;3.80;;
43146;SDS011;28752;48.266;7.402;2022-07-23T12:25:17;7.97;;;4.10;;
43146;SDS011;28752;48.266;7.402;2022-07-23T12:27:44;6.00;;;3.80;;
43146;SDS011;28752;48.266;7.402;2022-07-23T12:30:27;7.93;;;3.90;;
43146;SDS011;28752;48.266;7.402;2022-07-23T12:33:13;6.80;;;4.00;;
43146;SDS011;28752;48.266;7.402;2022-07-23T12:35:46;6.80;;;3.40;;
43146;SDS011;28752;48.266;7.402;2022-07-23T12:38:14;8.75;;;3.97;;
43146;SDS011;28752;48.266;7.402;2022-07-23T12:40:42;6.13;;;3.70;;
43146;SDS011;28752;48.266;7.402;2022-07-23T12:43:32;5.78;;;3.55;;
43146;SDS011;28752;48.266;7.402;2022-07-23T12:46:12;6.88;;;3.80;;
43146;SDS011;28752;48.266;7.402;2022-07-23T12:53:50;6.97;;;4.18;;
43146;SDS011;28752;48.266;7.402;2022-07-23T13:04:22;5.40;;;3.63;;
43146;SDS011;28752;48.266;7.402;2022-07-23T13:09:29;7.30;;;3.97;;
43146;SDS011;28752;48.266;7.402;2022-07-23T13:11:56;6.95;;;3.92;;
43146;SDS011;28752;48.266;7.402;2022-07-23T13:14:23;5.88;;;3.75;;
43146;SDS011;28752;48.266;7.402;2022-07-23T13:16:50;6.57;;;4.07;;
43146;SDS011;28752;48.266;7.402;2022-07-23T13:19:17;8.82;;;4.20;;
43146;SDS011;28752;48.266;7.402;2022-07-23T13:21:44;6.60;;;4.07;;
43146;SDS011;28752;48.266;7.402;2022-07-23T13:24:10;6.43;;;3.97;;
43146;SDS011;28752;48.266;7.402;2022-07-23T13:26:37;7.45;;;3.65;;
43146;SDS011;28752;48.266;7.402;2022-07-23T13:29:04;7.03;;;4.13;;
43146;SDS011;28752;48.266;7.402;2022-07-23T13:31:30;6.40;;;3.63;;
43146;SDS011;28752;48.266;7.402;2022-07-23T13:33:55;5.90;;;3.90;;
43146;SDS011;28752;48.266;7.402;2022-07-23T13:36:20;5.80;;;3.55;;
43146;SDS011;28752;48.266;7.402;2022-07-23T13:38:46;5.90;;;3.50;;
43146;SDS011;28752;48.266;7.402;2022-07-23T13:41:11;7.78;;;3.95;;
43146;SDS011;28752;48.266;7.402;2022-07-23T13:43:37;6.70;;;4.13;;
43146;SDS011;28752;48.266;7.402;2022-07-23T13:46:02;5.88;;;3.70;;
43146;SDS011;28752;48.266;7.402;2022-07-23T13:48:28;7.20;;;4.38;;
43146;SDS011;28752;48.266;7.402;2022-07-23T13:50:54;6.07;;;3.90;;
43146;SDS011;28752;48.266;7.402;2022-07-23T13:53:22;5.82;;;3.88;;
43146;SDS011;28752;48.266;7.402;2022-07-23T13:55:49;6.97;;;3.42;;
43146;SDS011;28752;48.266;7.402;2022-07-23T13:58:16;6.40;;;3.55;;
43146;SDS011;28752;48.266;7.402;2022-07-23T14:00:43;6.57;;;3.80;;
43146;SDS011;28752;48.266;7.402;2022-07-23T14:03:11;5.80;;;3.63;;
43146;SDS011;28752;48.266;7.402;2022-07-23T14:05:36;5.53;;;3.55;;
43146;SDS011;28752;48.266;7.402;2022-07-23T14:08:02;6.70;;;3.92;;
43146;SDS011;28752;48.266;7.402;2022-07-23T14:10:28;7.07;;;4.20;;
43146;SDS011;28752;48.266;7.402;2022-07-23T14:12:55;6.32;;;3.72;;
43146;SDS011;28752;48.266;7.402;2022-07-23T14:15:22;6.68;;;3.90;;
43146;SDS011;28752;48.266;7.402;2022-07-23T14:17:49;7.15;;;4.15;;
43146;SDS011;28752;48.266;7.402;2022-07-23T14:20:14;6.55;;;3.90;;
43146;SDS011;28752;48.266;7.402;2022-07-23T14:22:40;9.23;;;3.97;;
43146;SDS011;28752;48.266;7.402;2022-07-23T14:25:06;6.65;;;3.97;;
43146;SDS011;28752;48.266;7.402;2022-07-23T14:27:32;6.63;;;3.78;;
43146;SDS011;28752;48.266;7.402;2022-07-23T14:29:58;6.03;;;3.80;;
43146;SDS011;28752;48.266;7.402;2022-07-23T14:32:24;6.22;;;3.75;;
43146;SDS011;28752;48.266;7.402;2022-07-23T14:34:50;7.75;;;3.90;;
43146;SDS011;28752;48.266;7.402;2022-07-23T14:37:15;6.32;;;3.58;;
43146;SDS011;28752;48.266;7.402;2022-07-23T14:39:41;7.15;;;4.43;;
43146;SDS011;28752;48.266;7.402;2022-07-23T14:42:08;6.82;;;3.80;;
43146;SDS011;28752;48.266;7.402;2022-07-23T14:44:34;6.68;;;4.28;;
43146;SDS011;28752;48.266;7.402;2022-07-23T14:47:01;7.40;;;4.13;;
43146;SDS011;28752;48.266;7.402;2022-07-23T14:49:29;8.20;;;4.47;;
43146;SDS011;28752;48.266;7.402;2022-07-23T14:51:55;5.90;;;3.92;;
43146;SDS011;28752;48.266;7.402;2022-07-23T14:54:20;6.32;;;4.10;;
43146;SDS011;28752;48.266;7.402;2022-07-23T14:56:46;6.63;;;3.97;;
43146;SDS011;28752;48.266;7.402;2022-07-23T14:59:12;6.38;;;4.18;;
43146;SDS011;28752;48.266;7.402;2022-07-23T15:01:37;8.55;;;4.38;;
43146;SDS011;28752;48.266;7.402;2022-07-23T15:04:04;8.05;;;4.15;;
43146;SDS011;28752;48.266;7.402;2022-07-23T15:06:30;7.78;;;4.60;;
43146;SDS011;28752;48.266;7.402;2022-07-23T15:08:56;6.18;;;4.13;;
43146;SDS011;28752;48.266;7.402;2022-07-23T15:11:21;6.82;;;4.13;;
43146;SDS011;28752;48.266;7.402;2022-07-23T15:13:47;6.25;;;3.70;;
43146;SDS011;28752;48.266;7.402;2022-07-23T15:16:12;7.85;;;4.93;;
43146;SDS011;28752;48.266;7.402;2022-07-23T15:18:38;7.18;;;4.20;;
43146;SDS011;28752;48.266;7.402;2022-07-23T15:21:04;6.10;;;3.40;;
43146;SDS011;28752;48.266;7.402;2022-07-23T15:23:29;6.07;;;4.00;;
43146;SDS011;28752;48.266;7.402;2022-07-23T15:25:55;6.43;;;3.53;;
43146;SDS011;28752;48.266;7.402;2022-07-23T15:28:21;6.47;;;4.30;;
43146;SDS011;28752;48.266;7.402;2022-07-23T15:30:47;7.15;;;4.25;;
43146;SDS011;28752;48.266;7.402;2022-07-23T15:33:13;6.07;;;3.55;;
43146;SDS011;28752;48.266;7.402;2022-07-23T15:35:38;6.10;;;3.90;;
43146;SDS011;28752;48.266;7.402;2022-07-23T15:38:04;6.22;;;3.50;;
43146;SDS011;28752;48.266;7.402;2022-07-23T15:40:29;6.72;;;3.90;;
43146;SDS011;28752;48.266;7.402;2022-07-23T15:42:55;6.43;;;4.13;;
43146;SDS011;28752;48.266;7.402;2022-07-23T15:45:20;7.82;;;4.70;;
43146;SDS011;28752;48.266;7.402;2022-07-23T15:47:46;7.55;;;3.88;;
43146;SDS011;28752;48.266;7.402;2022-07-23T15:50:13;7.03;;;4.38;;
43146;SDS011;28752;48.266;7.402;2022-07-23T15:52:38;7.20;;;3.92;;
43146;SDS011;28752;48.266;7.402;2022-07-23T15:55:04;7.55;;;4.32;;
43146;SDS011;28752;48.266;7.402;2022-07-23T15:57:29;7.13;;;3.97;;
43146;SDS011;28752;48.266;7.402;2022-07-23T15:59:55;6.63;;;4.05;;
43146;SDS011;28752;48.266;7.402;2022-07-23T16:02:23;7.65;;;4.03;;
43146;SDS011;28752;48.266;7.402;2022-07-23T16:04:49;6.15;;;3.95;;
43146;SDS011;28752;48.266;7.402;2022-07-23T16:07:19;7.10;;;3.90;;
43146;SDS011;28752;48.266;7.402;2022-07-23T16:09:45;6.80;;;3.85;;